createdAt,value
2023-04-18T00:00:48.725Z,99.98
2023-04-18T00:03:17.277Z,99.93
2023-04-18T00:05:47.846Z,100.00
2023-04-18T00:08:15.025Z,100.00
2023-04-18T00:10:42.239Z,100.00
2023-04-18T00:13:09.717Z,100.00
2023-04-18T00:15:37.309Z,100.00
2023-04-18T00:18:05.591Z,100.00
2023-04-18T00:20:33.366Z,100.00
2023-04-18T00:23:01.349Z,100.00
2023-04-18T00:25:28.949Z,100.00
2023-04-18T00:27:56.023Z,100.00
2023-04-18T00:30:24.267Z,100.00
2023-04-18T00:32:51.477Z,100.00
2023-04-18T00:35:18.981Z,100.00
2023-04-18T00:37:46.501Z,100.00
2023-04-18T00:40:16.333Z,100.00
2023-04-18T00:42:43.955Z,100.00
2023-04-18T00:45:11.215Z,100.00
2023-04-18T00:47:38.571Z,100.00
2023-04-18T00:50:07.026Z,100.00
2023-04-18T00:52:35.521Z,100.00
2023-04-18T00:55:03.538Z,100.00
2023-04-18T00:57:31.002Z,100.00
2023-04-18T00:59:59.028Z,100.00
2023-04-18T01:02:30.801Z,100.00
2023-04-18T01:04:58.089Z,100.00
2023-04-18T01:07:26.219Z,100.00
2023-04-18T01:09:55.510Z,100.00
2023-04-18T01:12:23.019Z,100.00
2023-04-18T01:14:50.218Z,100.00
2023-04-18T01:17:18.945Z,100.00
2023-04-18T01:19:46.601Z,100.00
2023-04-18T01:22:14.050Z,100.00
2023-04-18T01:24:41.667Z,100.00
2023-04-18T01:27:13.070Z,100.00
2023-04-18T01:29:40.505Z,100.00
2023-04-18T01:32:08.187Z,100.00
2023-04-18T01:34:35.742Z,100.00
2023-04-18T01:37:06.022Z,100.00
2023-04-18T01:39:33.524Z,100.00
2023-04-18T01:42:01.695Z,100.00
2023-04-18T01:44:28.954Z,100.00
2023-04-18T01:46:56.164Z,100.00
2023-04-18T01:49:23.770Z,100.00
2023-04-18T01:51:50.908Z,100.00
2023-04-18T01:54:18.075Z,100.00
2023-04-18T01:56:45.266Z,100.00
2023-04-18T01:59:12.575Z,100.00
2023-04-18T02:01:39.929Z,100.00
2023-04-18T02:04:07.215Z,100.00
2023-04-18T02:06:35.048Z,100.00
2023-04-18T02:09:02.281Z,100.00
2023-04-18T02:11:32.093Z,100.00
2023-04-18T02:13:59.434Z,100.00
2023-04-18T02:16:26.692Z,100.00
2023-04-18T02:18:53.972Z,100.00
2023-04-18T02:21:21.518Z,100.00
2023-04-18T02:23:49.288Z,100.00
2023-04-18T02:26:16.438Z,100.00
2023-04-18T02:28:43.429Z,100.00
2023-04-18T02:31:14.275Z,100.00
2023-04-18T02:33:42.270Z,100.00
2023-04-18T02:36:09.715Z,100.00
2023-04-18T02:38:37.240Z,100.00
2023-04-18T02:41:04.423Z,100.00
2023-04-18T02:43:33.630Z,100.00
2023-04-18T02:46:02.660Z,100.00
2023-04-18T02:48:30.081Z,100.00
2023-04-18T02:51:02.831Z,100.00
2023-04-18T02:53:30.909Z,100.00
2023-04-18T02:55:58.503Z,100.00
2023-04-18T02:58:34.291Z,100.00
2023-04-18T03:01:17.788Z,100.00
2023-04-18T03:03:55.564Z,100.00
2023-04-18T03:06:31.483Z,100.00
2023-04-18T03:09:00.685Z,100.00
2023-04-18T03:11:28.635Z,100.00
2023-04-18T03:13:56.661Z,100.00
2023-04-18T03:16:25.594Z,100.00
2023-04-18T03:18:53.283Z,100.00
2023-04-18T03:21:21.885Z,100.00
2023-04-18T03:23:49.238Z,100.00
2023-04-18T03:26:16.517Z,100.00
2023-04-18T03:28:44.546Z,100.00
2023-04-18T03:31:12.162Z,100.00
2023-04-18T03:33:41.947Z,100.00
2023-04-18T03:36:10.683Z,100.00
2023-04-18T03:38:40.104Z,100.00
2023-04-18T03:41:07.587Z,100.00
2023-04-18T03:43:35.682Z,100.00
2023-04-18T03:46:03.323Z,100.00
2023-04-18T03:48:30.625Z,100.00
2023-04-18T03:51:00.326Z,100.00
2023-04-18T03:53:27.804Z,100.00
2023-04-18T03:55:55.837Z,100.00
2023-04-18T03:58:24.698Z,100.00
2023-04-18T04:00:52.318Z,100.00
2023-04-18T04:03:19.995Z,100.00
2023-04-18T04:05:47.953Z,100.00
2023-04-18T04:08:16.075Z,100.00
2023-04-18T04:10:43.417Z,100.00
2023-04-18T04:13:10.860Z,100.00
2023-04-18T04:15:38.510Z,100.00
2023-04-18T04:18:08.203Z,100.00
2023-04-18T04:20:37.108Z,100.00
2023-04-18T04:23:13.496Z,100.00
2023-04-18T04:25:45.927Z,100.00
2023-04-18T04:28:23.643Z,100.00
2023-04-18T04:30:55.263Z,100.00
2023-04-18T04:33:32.784Z,100.00
2023-04-18T04:36:01.751Z,100.00
2023-04-18T04:38:30.799Z,100.00
2023-04-18T04:40:58.783Z,100.00
2023-04-18T04:43:28.396Z,100.00
2023-04-18T04:45:57.251Z,100.00
2023-04-18T04:48:24.718Z,100.00
2023-04-18T04:50:56.361Z,100.00
2023-04-18T04:53:25.047Z,100.00
2023-04-18T04:55:52.653Z,100.00
2023-04-18T04:58:20.206Z,100.00
2023-04-18T05:01:07.681Z,100.00
2023-04-18T05:03:38.633Z,100.00
2023-04-18T05:06:05.997Z,100.00
2023-04-18T05:08:33.120Z,100.00
2023-04-18T05:11:01.054Z,100.00
2023-04-18T05:13:28.653Z,100.00
2023-04-18T05:15:56.353Z,100.00
2023-04-18T05:18:23.401Z,100.00
2023-04-18T05:20:50.630Z,100.00
2023-04-18T05:23:18.042Z,100.00
2023-04-18T05:25:47.970Z,100.00
2023-04-18T05:28:15.773Z,100.00
2023-04-18T05:30:44.225Z,100.00
2023-04-18T05:33:11.462Z,100.00
2023-04-18T05:35:38.741Z,100.00
2023-04-18T05:38:05.886Z,100.00
2023-04-18T05:40:33.439Z,100.00
2023-04-18T05:43:00.917Z,100.00
2023-04-18T05:45:28.258Z,100.00
2023-04-18T05:47:56.036Z,100.00
2023-04-18T05:50:23.574Z,100.00
2023-04-18T05:52:50.763Z,100.00
2023-04-18T05:55:18.055Z,100.00
2023-04-18T05:57:45.536Z,100.00
2023-04-18T06:00:13.325Z,100.00
2023-04-18T06:02:41.072Z,100.00
2023-04-18T06:05:08.773Z,100.00
2023-04-18T06:07:36.941Z,100.00
2023-04-18T06:10:07.310Z,100.00
2023-04-18T06:12:34.826Z,100.00
2023-04-18T06:15:03.136Z,100.00
2023-04-18T06:17:30.668Z,100.00
2023-04-18T06:19:58.011Z,100.00
2023-04-18T06:22:25.342Z,100.00
2023-04-18T06:24:54.879Z,100.00
2023-04-18T06:27:30.485Z,100.00
2023-04-18T06:29:59.065Z,100.00
2023-04-18T06:32:26.825Z,100.00
2023-04-18T06:34:54.059Z,100.00
2023-04-18T06:37:21.341Z,100.00
2023-04-18T06:39:48.559Z,100.00
2023-04-18T06:42:15.780Z,100.00
2023-04-18T06:44:47.632Z,100.00
2023-04-18T06:47:14.711Z,100.00
2023-04-18T06:49:41.780Z,100.00
2023-04-18T06:52:08.833Z,100.00
2023-04-18T06:54:37.699Z,100.00
2023-04-18T06:57:05.062Z,100.00
2023-04-18T06:59:32.912Z,100.00
2023-04-18T07:02:00.244Z,100.00
2023-04-18T07:04:27.743Z,100.00
2023-04-18T07:06:55.104Z,100.00
2023-04-18T07:09:22.515Z,100.00
2023-04-18T07:11:51.892Z,100.00
2023-04-18T07:14:22.116Z,100.00
2023-04-18T07:16:49.244Z,100.00
2023-04-18T07:19:16.973Z,100.00
2023-04-18T07:21:45.615Z,100.00
2023-04-18T07:24:18.638Z,100.00
2023-04-18T07:26:46.287Z,100.00
2023-04-18T07:29:13.775Z,100.00
2023-04-18T07:31:41.218Z,100.00
2023-04-18T07:34:09.408Z,100.00
2023-04-18T07:36:37.106Z,100.00
2023-04-18T07:39:04.378Z,100.00
2023-04-18T07:41:32.449Z,100.00
2023-04-18T07:44:00.356Z,100.00
2023-04-18T07:46:27.644Z,100.00
2023-04-18T07:48:55.216Z,100.00
2023-04-18T07:51:25.005Z,100.00
2023-04-18T07:53:52.492Z,100.00
2023-04-18T07:56:19.642Z,100.00
2023-04-18T07:58:46.973Z,100.00
2023-04-18T08:01:17.761Z,100.00
2023-04-18T08:03:46.118Z,100.00
2023-04-18T08:06:14.215Z,100.00
2023-04-18T08:08:41.676Z,100.00
2023-04-18T08:11:08.928Z,100.00
2023-04-18T08:13:36.209Z,100.00
2023-04-18T08:16:03.341Z,100.00
2023-04-18T08:18:30.748Z,100.00
2023-04-18T08:20:58.200Z,100.00
2023-04-18T08:23:25.920Z,100.00
2023-04-18T08:25:53.183Z,100.00
2023-04-18T08:28:20.537Z,100.00
2023-04-18T08:30:48.795Z,100.00
2023-04-18T08:33:16.419Z,100.00
2023-04-18T08:35:43.845Z,99.98
2023-04-18T08:38:11.197Z,99.95
2023-04-18T08:40:39.142Z,100.00
2023-04-18T08:43:14.610Z,100.00
2023-04-18T08:45:42.306Z,100.00
2023-04-18T08:48:15.844Z,100.00
2023-04-18T08:50:43.466Z,100.00
2023-04-18T08:53:10.734Z,100.00
2023-04-18T08:55:37.904Z,100.00
2023-04-18T08:58:06.524Z,99.93
2023-04-18T09:00:35.181Z,99.50
2023-04-18T09:03:03.306Z,99.25
2023-04-18T09:05:31.026Z,98.76
2023-04-18T09:07:58.417Z,98.38
2023-04-18T09:10:26.964Z,98.67
2023-04-18T09:12:54.514Z,99.36
2023-04-18T09:15:26.725Z,100.00
2023-04-18T09:17:58.044Z,100.00
2023-04-18T09:20:34.720Z,99.94
2023-04-18T09:23:03.570Z,98.58
2023-04-18T09:25:35.597Z,98.67
2023-04-18T09:28:03.214Z,99.49
2023-04-18T09:30:37.378Z,99.43
2023-04-18T09:33:07.084Z,99.55
2023-04-18T09:35:34.924Z,98.95
2023-04-18T09:38:02.405Z,99.13
2023-04-18T09:40:30.536Z,97.44
2023-04-18T09:42:57.830Z,94.18
2023-04-18T09:45:25.154Z,93.37
2023-04-18T09:47:52.710Z,93.40
2023-04-18T09:50:20.460Z,94.27
2023-04-18T09:52:47.973Z,93.46
2023-04-18T09:55:18.136Z,91.08
2023-04-18T09:57:46.086Z,88.76
2023-04-18T10:00:20.976Z,87.44
2023-04-18T10:02:49.763Z,87.23
2023-04-18T10:05:19.525Z,86.31
2023-04-18T10:07:48.658Z,83.45
2023-04-18T10:10:16.644Z,80.54
2023-04-18T10:12:44.285Z,79.17
2023-04-18T10:15:11.460Z,79.64
2023-04-18T10:17:56.127Z,79.85
2023-04-18T10:20:29.040Z,78.79
2023-04-18T10:22:58.947Z,76.36
2023-04-18T10:25:39.304Z,74.72
2023-04-18T10:28:06.858Z,74.14
2023-04-18T10:30:39.580Z,72.61
2023-04-18T10:33:30.391Z,72.81
2023-04-18T10:35:59.670Z,73.04
2023-04-18T10:38:27.272Z,71.48
2023-04-18T10:41:13.562Z,70.41
2023-04-18T10:44:01.044Z,69.45
2023-04-18T10:46:32.577Z,67.99
2023-04-18T10:49:19.671Z,67.96
2023-04-18T10:51:50.794Z,68.45
2023-04-18T10:54:18.509Z,67.87
2023-04-18T10:56:55.379Z,67.52
2023-04-18T10:59:24.749Z,66.10
2023-04-18T11:01:55.532Z,65.36
2023-04-18T11:04:23.688Z,64.85
2023-04-18T11:06:54.897Z,64.24
2023-04-18T11:09:24.480Z,63.01
2023-04-18T11:12:23.604Z,61.19
2023-04-18T11:14:52.176Z,60.40
2023-04-18T11:17:21.576Z,58.65
2023-04-18T11:19:51.204Z,57.32
2023-04-18T11:22:20.014Z,56.58
2023-04-18T11:24:47.181Z,56.39
2023-04-18T11:27:14.399Z,56.16
2023-04-18T11:29:41.461Z,56.06
2023-04-18T11:32:08.866Z,55.42
2023-04-18T11:34:36.223Z,54.68
2023-04-18T11:37:06.951Z,54.23
2023-04-18T11:39:35.840Z,53.42
2023-04-18T11:42:03.064Z,53.45
2023-04-18T11:44:30.571Z,53.14
2023-04-18T11:46:57.885Z,53.26
2023-04-18T11:49:28.358Z,53.28
2023-04-18T11:51:55.912Z,53.39
2023-04-18T11:54:39.294Z,53.01
2023-04-18T11:57:06.986Z,51.68
2023-04-18T11:59:34.167Z,50.55
2023-04-18T12:02:14.698Z,49.43
2023-04-18T12:04:51.750Z,48.77
2023-04-18T12:07:32.946Z,48.74
2023-04-18T12:10:00.616Z,48.15
2023-04-18T12:12:28.407Z,47.68
2023-04-18T12:15:02.885Z,47.47
2023-04-18T12:17:30.511Z,47.26
2023-04-18T12:20:02.242Z,46.60
2023-04-18T12:22:41.523Z,46.06
2023-04-18T12:25:25.886Z,46.24
2023-04-18T12:27:54.839Z,46.41
2023-04-18T12:30:23.003Z,46.55
2023-04-18T12:32:53.985Z,46.99
2023-04-18T12:35:21.288Z,46.79
2023-04-18T12:37:49.446Z,46.27
2023-04-18T12:40:18.467Z,45.81
2023-04-18T12:42:46.330Z,46.20
2023-04-18T12:45:18.718Z,46.46
2023-04-18T12:47:47.854Z,46.09
2023-04-18T12:50:22.926Z,46.58
2023-04-18T12:52:51.685Z,47.08
2023-04-18T12:55:21.360Z,46.21
2023-04-18T12:57:49.760Z,45.55
2023-04-18T13:00:20.807Z,45.75
2023-04-18T13:06:10.046Z,45.99
2023-04-18T13:08:37.930Z,45.80
2023-04-18T13:11:30.055Z,45.83
2023-04-18T13:13:57.571Z,46.21
2023-04-18T13:16:25.459Z,46.19
2023-04-18T13:18:52.832Z,46.78
2023-04-18T13:21:20.001Z,47.02
2023-04-18T13:23:47.196Z,47.07
2023-04-18T13:26:14.421Z,46.25
2023-04-18T13:28:42.912Z,45.41
2023-04-18T13:31:10.045Z,45.13
2023-04-18T13:33:39.722Z,45.60
2023-04-18T13:36:07.036Z,46.18
2023-04-18T13:38:35.044Z,46.09
2023-04-18T13:41:12.255Z,46.31
2023-04-18T13:43:42.032Z,46.24
2023-04-18T13:46:12.571Z,46.40
2023-04-18T13:48:40.003Z,46.04
2023-04-18T13:51:07.226Z,46.12
2023-04-18T13:53:35.568Z,45.87
2023-04-18T13:56:02.928Z,45.34
2023-04-18T13:58:32.695Z,44.91
2023-04-18T14:01:00.545Z,45.02
2023-04-18T14:03:29.613Z,44.88
2023-04-18T14:05:58.936Z,44.55
2023-04-18T14:08:27.010Z,44.25
2023-04-18T14:10:55.108Z,44.32
2023-04-18T14:13:23.904Z,44.20
2023-04-18T14:15:52.252Z,44.32
2023-04-18T14:18:21.433Z,44.56
2023-04-18T14:20:48.541Z,44.84
2023-04-18T14:23:21.868Z,44.90
2023-04-18T14:26:05.508Z,45.33
2023-04-18T14:28:34.200Z,45.87
2023-04-18T14:31:02.577Z,46.18
2023-04-18T14:33:30.108Z,46.96
2023-04-18T14:36:01.858Z,47.51
2023-04-18T14:38:30.642Z,48.31
2023-04-18T14:41:18.043Z,49.25
2023-04-18T14:43:47.245Z,49.43
2023-04-18T14:46:17.089Z,49.34
2023-04-18T14:48:45.864Z,49.43
2023-04-18T14:51:15.814Z,50.16
2023-04-18T14:53:46.969Z,50.35
2023-04-18T14:56:24.681Z,50.88
2023-04-18T14:58:59.106Z,51.53
2023-04-18T15:01:29.198Z,52.41
2023-04-18T15:03:57.753Z,53.07
2023-04-18T15:06:28.320Z,53.86
2023-04-18T15:08:56.794Z,54.71
2023-04-18T15:11:24.664Z,55.65
2023-04-18T15:13:51.606Z,56.68
2023-04-18T15:16:20.445Z,58.09
2023-04-18T15:18:48.480Z,59.49
2023-04-18T15:24:18.078Z,60.79
2023-04-18T15:26:47.959Z,61.39
2023-04-18T15:29:15.461Z,62.79
2023-04-18T15:38:18.621Z,68.49
2023-04-18T15:52:26.488Z,74.91
2023-04-18T15:55:23.047Z,76.71
2023-04-18T15:59:13.830Z,78.40
2023-04-18T16:01:56.458Z,80.25
2023-04-18T16:04:26.506Z,81.99
2023-04-18T16:07:06.460Z,83.96
2023-04-18T16:09:33.711Z,86.28
2023-04-18T16:12:20.731Z,87.75
2023-04-18T16:14:50.709Z,89.70
2023-04-18T16:17:34.533Z,91.22
2023-04-18T16:20:03.286Z,92.92
2023-04-18T16:22:31.119Z,94.93
2023-04-18T16:24:58.206Z,96.36
2023-04-18T16:27:25.744Z,98.43
2023-04-18T16:29:53.435Z,100.00
2023-04-18T16:32:20.944Z,100.00
2023-04-18T16:34:48.421Z,100.00
2023-04-18T16:37:18.525Z,100.00
2023-04-18T16:39:48.580Z,100.00
2023-04-18T16:42:17.570Z,100.00
2023-04-18T16:45:09.816Z,100.00
2023-04-18T16:47:51.743Z,100.00
2023-04-18T16:50:45.284Z,100.00
2023-04-18T16:53:13.001Z,100.00
2023-04-18T16:55:55.376Z,100.00
2023-04-18T16:58:41.037Z,100.00
2023-04-18T17:01:31.583Z,100.00
2023-04-18T17:04:04.077Z,100.00
2023-04-18T17:10:20.311Z,100.00
2023-04-18T17:12:50.607Z,100.00
2023-04-18T17:19:28.044Z,100.00
2023-04-18T17:21:55.356Z,100.00
2023-04-18T17:24:26.811Z,100.00
2023-04-18T17:26:57.302Z,100.00
2023-04-18T17:29:24.756Z,100.00
2023-04-18T17:32:15.344Z,100.00
2023-04-18T17:34:42.715Z,100.00
2023-04-18T17:37:11.183Z,100.00
2023-04-18T17:39:44.396Z,100.00
2023-04-18T17:42:12.770Z,100.00
2023-04-18T17:44:41.250Z,100.00
2023-04-18T17:47:09.072Z,100.00
2023-04-18T17:49:36.551Z,100.00
2023-04-18T17:52:04.160Z,100.00
2023-04-18T17:54:33.340Z,100.00
2023-04-18T17:57:01.974Z,100.00
2023-04-18T17:59:30.430Z,100.00
2023-04-18T18:01:59.220Z,100.00
2023-04-18T18:04:27.520Z,100.00
2023-04-18T18:06:58.230Z,100.00
2023-04-18T18:09:25.457Z,100.00
2023-04-18T18:11:55.380Z,100.00
2023-04-18T18:14:23.353Z,100.00
2023-04-18T18:16:50.573Z,100.00
2023-04-18T18:19:17.868Z,100.00
2023-04-18T18:21:47.575Z,100.00
2023-04-18T18:24:15.817Z,100.00
2023-04-18T18:26:45.279Z,100.00
2023-04-18T18:29:15.056Z,100.00
2023-04-18T18:31:42.337Z,100.00
2023-04-18T18:34:10.904Z,100.00
2023-04-18T18:36:38.346Z,100.00
2023-04-18T18:39:05.662Z,100.00
2023-04-18T18:41:32.959Z,100.00
2023-04-18T18:44:00.587Z,100.00
2023-04-18T18:46:28.352Z,100.00
2023-04-18T18:48:56.002Z,100.00
2023-04-18T18:51:23.594Z,100.00
2023-04-18T18:53:54.290Z,100.00
2023-04-18T18:57:02.302Z,100.00
2023-04-18T18:59:29.991Z,100.00
2023-04-18T19:01:57.275Z,100.00
2023-04-18T19:04:25.600Z,100.00
2023-04-18T19:06:53.328Z,100.00
2023-04-18T19:09:20.731Z,100.00
2023-04-18T19:12:23.635Z,100.00
2023-04-18T19:14:51.090Z,100.00
2023-04-18T19:17:22.301Z,100.00
2023-04-18T19:19:51.279Z,100.00
2023-04-18T19:22:19.491Z,100.00
2023-04-18T19:24:47.495Z,100.00
2023-04-18T19:27:14.700Z,100.00
2023-04-18T19:29:41.819Z,100.00
2023-04-18T19:32:10.426Z,100.00
2023-04-18T19:34:37.750Z,100.00
2023-04-18T19:37:04.962Z,100.00
2023-04-18T19:39:32.416Z,100.00
2023-04-18T19:41:59.409Z,100.00
2023-04-18T19:44:27.067Z,100.00
2023-04-18T19:46:54.107Z,100.00
2023-04-18T19:49:44.669Z,100.00
2023-04-18T19:52:11.780Z,100.00
2023-04-18T19:54:40.855Z,100.00
2023-04-18T19:57:10.165Z,100.00
2023-04-18T19:59:37.702Z,100.00
2023-04-18T20:02:06.248Z,100.00
2023-04-18T20:04:36.135Z,100.00
2023-04-18T20:07:05.407Z,100.00
2023-04-18T20:09:32.841Z,100.00
2023-04-18T20:12:03.050Z,100.00
2023-04-18T20:14:31.353Z,100.00
2023-04-18T20:17:07.579Z,100.00
2023-04-18T20:19:37.896Z,100.00
2023-04-18T20:22:06.030Z,100.00
2023-04-18T20:24:34.244Z,100.00
2023-04-18T20:27:05.133Z,100.00
2023-04-18T20:29:33.143Z,100.00
2023-04-18T20:32:00.338Z,100.00
2023-04-18T20:34:27.565Z,100.00
2023-04-18T20:36:55.094Z,100.00
2023-04-18T20:39:22.406Z,100.00
2023-04-18T20:41:50.764Z,100.00
2023-04-18T20:44:22.023Z,100.00
2023-04-18T20:46:49.113Z,100.00
2023-04-18T20:49:16.385Z,100.00
2023-04-18T20:51:43.630Z,100.00
2023-04-18T20:54:11.443Z,100.00
2023-04-18T20:56:38.799Z,100.00
2023-04-18T20:59:06.646Z,100.00
2023-04-18T21:01:35.532Z,100.00
2023-04-18T21:04:04.841Z,100.00
2023-04-18T21:06:33.735Z,100.00
2023-04-18T21:09:00.938Z,100.00
2023-04-18T21:11:28.659Z,100.00
2023-04-18T21:13:55.715Z,100.00
2023-04-18T21:16:23.713Z,100.00
2023-04-18T21:18:50.952Z,100.00
2023-04-18T21:21:18.071Z,100.00
2023-04-18T21:23:45.300Z,100.00
2023-04-18T21:26:12.929Z,100.00
2023-04-18T21:28:58.563Z,100.00
2023-04-18T21:31:26.224Z,100.00
2023-04-18T21:33:57.946Z,100.00
2023-04-18T21:36:26.601Z,100.00
2023-04-18T21:38:54.242Z,100.00
2023-04-18T21:41:21.716Z,100.00
2023-04-18T21:43:49.102Z,100.00
2023-04-18T21:46:16.366Z,100.00
2023-04-18T21:48:44.963Z,100.00
2023-04-18T21:51:12.791Z,100.00
2023-04-18T21:53:41.162Z,100.00
2023-04-18T21:56:08.356Z,100.00
2023-04-18T21:58:35.615Z,100.00
2023-04-18T22:01:02.897Z,100.00
2023-04-18T22:03:31.144Z,100.00
2023-04-18T22:05:58.999Z,100.00
2023-04-18T22:08:26.291Z,100.00
2023-04-18T22:10:58.569Z,100.00
2023-04-18T22:13:29.422Z,100.00
2023-04-18T22:15:57.686Z,100.00
2023-04-18T22:18:24.886Z,100.00
2023-04-18T22:20:53.857Z,100.00
2023-04-18T22:23:21.289Z,100.00
2023-04-18T22:25:48.520Z,100.00
2023-04-18T22:28:15.804Z,100.00
2023-04-18T22:30:43.086Z,100.00
2023-04-18T22:33:11.652Z,100.00
2023-04-18T22:35:38.652Z,100.00
2023-04-18T22:38:05.955Z,100.00
2023-04-18T22:40:33.081Z,100.00
2023-04-18T22:43:00.608Z,100.00
2023-04-18T22:45:27.935Z,100.00
2023-04-18T22:47:54.980Z,100.00
2023-04-18T22:50:22.156Z,100.00
2023-04-18T22:52:50.662Z,100.00
2023-04-18T22:55:19.367Z,100.00
2023-04-18T22:57:46.624Z,100.00
2023-04-18T23:00:14.108Z,100.00
2023-04-18T23:02:41.661Z,100.00
2023-04-18T23:05:10.528Z,100.00
2023-04-18T23:07:38.208Z,100.00
2023-04-18T23:10:06.288Z,100.00
2023-04-18T23:12:34.064Z,100.00
2023-04-18T23:15:01.398Z,100.00
2023-04-18T23:17:28.863Z,100.00
2023-04-18T23:19:56.108Z,100.00
2023-04-18T23:22:23.805Z,100.00
2023-04-18T23:24:53.213Z,100.00
2023-04-18T23:27:20.575Z,100.00
2023-04-18T23:29:48.275Z,100.00
2023-04-18T23:32:16.138Z,100.00
2023-04-18T23:34:44.635Z,100.00
2023-04-18T23:37:11.668Z,100.00
2023-04-18T23:39:38.680Z,100.00
2023-04-18T23:42:06.027Z,100.00
2023-04-18T23:44:35.643Z,100.00
2023-04-18T23:47:03.374Z,100.00
2023-04-18T23:49:30.887Z,100.00
2023-04-18T23:51:58.020Z,100.00
2023-04-18T23:54:26.842Z,100.00
2023-04-18T23:56:54.363Z,100.00
2023-04-18T23:59:22.234Z,100.00
